Yellow Mule RAWS (NWS)

Elevation
9200ft
Aggregated by Synoptic Data
Date/Time Wind Direction Wind Speed knots Wind Gust knots RH % Accumulated Precip Inches Air Temp Fahrenheit
2024-06-14 10:04 SSW 9 15 38 5.52 63
2024-06-14 09:04 S 6 10 43 5.52 59
2024-06-14 08:04 WSW 6 23 47 5.52 56
2024-06-14 07:04 SSE 3 13 53 5.52 52
2024-06-14 06:04 SSE 8 17 57 5.52 49
2024-06-14 05:04 SSE 7 13 46 5.52 52
2024-06-14 04:04 SSW 8 17 39 5.52 54
2024-06-14 03:04 SSE 10 20 42 5.52 54
2024-06-14 02:04 SSE 6 10 39 5.52 54
2024-06-14 01:04 S 9 15 38 5.52 55
2024-06-14 00:04 SSE 8 11 37 5.52 55
2024-06-13 23:04 SSE 6 10 36 5.52 56
2024-06-13 22:04 SSE 9 13 33 5.52 57
2024-06-13 21:04 SSE 6 11 30 5.52 59
2024-06-13 20:04 SSE 7 15 26 5.52 63
2024-06-13 19:04 SSW 8 15 26 5.52 64
2024-06-13 18:04 S 6 19 26 5.52 65
2024-06-13 17:04 SSE 10 19 25 5.52 64
2024-06-13 16:04 SSW 11 20 26 5.52 63
2024-06-13 15:04 SW 11 21 26 5.52 62
2024-06-13 14:04 S 14 23 25 5.52 60
2024-06-13 13:04 S 10 21 23 5.52 59
2024-06-13 12:04 SSW 7 18 22 5.52 59
2024-06-13 11:04 S 7 12 23 5.52 59
2024-06-13 10:04 SSE 4 8 30 5.52 59
2024-06-13 09:04 S 4 6 36 5.52 51
2024-06-13 08:04 S 4 6 36 5.52 46
2024-06-13 07:04 SSE 5 6 39 5.52 43
2024-06-13 06:04 ESE 2 4 39 5.52 42
2024-06-13 05:04 WSW 2 3 36 5.52 41
2024-06-13 04:04 NNE 3 6 38 5.52 41
2024-06-13 03:04 NNE 3 9 38 5.52 42
2024-06-13 02:04 NNE 3 5 40 5.52 42
2024-06-13 01:04 NNW 5 7 39 5.52 44
2024-06-13 00:04 N 3 6 40 5.52 46
2024-06-12 23:04 NE 3 10 44 5.52 47
2024-06-12 22:04 NNE 4 10 37 5.52 50
2024-06-12 21:04 WNW 5 10 27 5.52 54
2024-06-12 20:04 NW 5 14 23 5.52 59
2024-06-12 19:04 WSW 10 18 21 5.52 61
2024-06-12 18:04 SW 12 22 20 5.52 63
2024-06-12 17:04 SSW 12 24 22 5.52 63
2024-06-12 16:04 SSW 15 27 25 5.52 60
2024-06-12 15:04 SSW 16 29 22 5.52 62
2024-06-12 14:04 SW 14 33 24 5.52 61
2024-06-12 13:04 SSW 17 31 26 5.52 59
2024-06-12 12:04 SW 18 29 29 5.52 57
2024-06-12 11:04 SSW 19 29 31 5.52 57
2024-06-12 10:04 SSW 19 34 30 5.52 56